Time;durP1;ratioP1;P1;durP2;ratioP2;P2;SDS_P1;SDS_P2;PMS_P1;PMS_P2;Temp;Humidity;BMP_temperature;BMP_pressure;BME280_temperature;BME280_humidity;BME280_pressure;Samples;Min_cycle;Max_cycle;Signal;HPM_P1;HPM_P2
2022/06/05 00:00:15;;;;;;;8.03;7.43;;;18.60;99.90;;;;;;5054745;28;20411;-43
2022/06/05 00:03:15;;;;;;;7.53;6.90;;;18.60;99.90;;;;;;5069627;28;20472;-44
2022/06/05 00:05:46;;;;;;;7.40;6.80;;;18.50;99.90;;;;;;5063362;28;20465;-42
2022/06/05 00:08:12;;;;;;;8.60;7.90;;;18.50;99.90;;;;;;5068633;28;20466;-40
2022/06/05 00:10:58;;;;;;;7.40;6.80;;;18.50;99.90;;;;;;5067324;28;20422;-40
2022/06/05 00:13:37;;;;;;;8.40;7.50;;;18.50;99.90;;;;;;5054397;28;20200;-43
2022/06/05 00:16:03;;;;;;;8.37;7.10;;;18.40;99.90;;;;;;5052469;28;20984;-42
2022/06/05 00:18:36;;;;;;;7.30;6.70;;;18.30;99.90;;;;;;5068635;28;21186;-43
2022/06/05 00:21:03;;;;;;;7.60;7.00;;;18.40;99.90;;;;;;5067223;28;20506;-40
2022/06/05 00:23:30;;;;;;;7.50;6.90;;;18.40;99.90;;;;;;5067932;28;20510;-39
2022/06/05 00:26:10;;;;;;;7.90;7.10;;;18.40;99.90;;;;;;5066689;28;20466;-48
2022/06/05 00:28:57;;;;;;;8.00;7.40;;;18.20;99.90;;;;;;5051260;28;20953;-48
2022/06/05 00:31:41;;;;;;;8.20;7.43;;;18.20;99.90;;;;;;5053646;28;21137;-44
2022/06/05 00:34:07;;;;;;;8.20;7.50;;;18.20;99.90;;;;;;5068662;28;20418;-42
2022/06/05 00:36:45;;;;;;;7.77;7.03;;;18.10;99.90;;;;;;5058446;28;20427;-40
2022/06/05 00:39:19;;;;;;;7.70;6.93;;;18.10;99.90;;;;;;5068847;28;20476;-41
2022/06/05 00:41:55;;;;;;;8.40;7.53;;;18.00;99.90;;;;;;5059350;28;20436;-44
2022/06/05 00:44:29;;;;;;;8.43;7.73;;;18.00;99.90;;;;;;5057992;28;20403;-43
2022/06/05 00:46:56;;;;;;;8.53;7.93;;;18.00;99.90;;;;;;5063108;28;20510;-42
2022/06/05 00:49:29;;;;;;;8.40;7.70;;;18.00;99.90;;;;;;5067122;28;21031;-41
2022/06/05 00:51:55;;;;;;;8.20;7.40;;;17.90;99.90;;;;;;5062520;28;20423;-43
2022/06/05 00:54:20;;;;;;;8.53;7.83;;;18.00;99.90;;;;;;5057166;28;20473;-41
2022/06/05 00:56:46;;;;;;;8.40;7.80;;;18.00;99.90;;;;;;5062027;28;20279;-45
2022/06/05 00:59:13;;;;;;;8.63;7.87;;;17.90;99.90;;;;;;5050652;28;20185;-45
2022/06/05 01:01:41;;;;;;;7.80;7.20;;;17.90;99.90;;;;;;5054611;28;20197;-45
2022/06/05 01:04:07;;;;;;;10.20;8.40;;;18.00;99.90;;;;;;5069103;28;21007;-42
2022/06/05 01:06:33;;;;;;;8.57;7.80;;;17.90;99.90;;;;;;5066428;28;20423;-41
2022/06/05 01:08:59;;;;;;;8.73;7.87;;;17.80;99.90;;;;;;5068702;28;20463;-45
2022/06/05 01:12:01;;;;;;;9.33;8.43;;;17.80;99.90;;;;;;5064259;28;21013;-42
2022/06/05 01:14:29;;;;;;;8.90;8.20;;;17.80;99.90;;;;;;5050872;28;20743;-42
2022/06/05 01:17:41;;;;;;;9.27;8.47;;;17.70;99.90;;;;;;5064820;28;20506;-40
2022/06/05 01:20:39;;;;;;;9.20;8.40;;;17.70;99.90;;;;;;5037466;28;20436;-42
2022/06/05 01:23:39;;;;;;;8.90;8.30;;;17.70;99.90;;;;;;5068239;28;20450;-42
2022/06/05 01:26:22;;;;;;;8.10;7.40;;;17.60;99.90;;;;;;5071012;28;20404;-43
2022/06/05 01:29:00;;;;;;;9.53;8.40;;;17.60;99.90;;;;;;5057505;28;20827;-41
2022/06/05 01:31:54;;;;;;;8.47;7.77;;;17.60;99.90;;;;;;5057655;28;21345;-39
2022/06/05 01:34:42;;;;;;;9.33;8.63;;;17.70;99.90;;;;;;5072566;28;20411;-41
2022/06/05 01:37:33;;;;;;;9.03;8.23;;;17.60;99.90;;;;;;5065619;28;20430;-42
2022/06/05 01:40:18;;;;;;;9.70;8.80;;;17.50;99.90;;;;;;5072439;28;20434;-42
2022/06/05 01:42:52;;;;;;;9.10;8.30;;;17.60;99.90;;;;;;5059227;28;20463;-40
2022/06/05 01:45:36;;;;;;;8.80;7.93;;;17.50;99.90;;;;;;5059528;28;20454;-40
2022/06/05 01:48:05;;;;;;;9.40;8.70;;;17.40;99.90;;;;;;5061915;28;20482;-41
2022/06/05 01:50:43;;;;;;;9.33;8.63;;;17.40;99.90;;;;;;5068322;28;20415;-43
2022/06/05 01:53:19;;;;;;;9.00;8.10;;;17.30;99.90;;;;;;5058970;28;20435;-42
2022/06/05 01:55:54;;;;;;;8.90;8.20;;;17.30;99.90;;;;;;5059214;28;20434;-43
2022/06/05 01:58:24;;;;;;;9.40;7.90;;;17.20;99.90;;;;;;5056262;28;20464;-40
2022/06/05 02:00:53;;;;;;;8.97;8.17;;;17.30;99.90;;;;;;5057058;28;20963;-41
2022/06/05 02:03:36;;;;;;;9.53;8.63;;;17.20;99.90;;;;;;5068093;28;20434;-42
2022/06/05 02:06:29;;;;;;;7.83;7.23;;;17.30;99.90;;;;;;5059871;28;20424;-42
2022/06/05 02:09:01;;;;;;;9.97;9.13;;;17.30;99.90;;;;;;5071321;28;20938;-40
2022/06/05 02:11:30;;;;;;;8.33;7.73;;;17.30;99.90;;;;;;5069909;28;20415;-43
2022/06/05 02:14:05;;;;;;;9.40;8.60;;;17.20;99.90;;;;;;5055784;28;20807;-43
2022/06/05 02:16:33;;;;;;;10.10;9.20;;;17.30;99.90;;;;;;5064109;28;20467;-42
2022/06/05 02:19:03;;;;;;;10.27;9.47;;;17.40;99.90;;;;;;5071485;28;20415;-43
2022/06/05 02:21:28;;;;;;;11.70;9.60;;;17.30;99.90;;;;;;5063287;28;20460;-43
2022/06/05 02:23:56;;;;;;;10.00;9.20;;;17.20;99.90;;;;;;5071473;28;20463;-41
2022/06/05 02:26:22;;;;;;;9.87;8.97;;;17.10;99.90;;;;;;5070001;28;20378;-41
2022/06/05 02:28:47;;;;;;;9.83;9.10;;;17.10;99.90;;;;;;5050290;28;20452;-45
2022/06/05 02:31:40;;;;;;;9.93;9.13;;;17.10;99.90;;;;;;5055274;28;20719;-41
2022/06/05 02:34:05;;;;;;;10.10;9.20;;;17.10;99.90;;;;;;5067111;28;20181;-43
2022/06/05 02:36:45;;;;;;;10.60;9.70;;;17.10;99.90;;;;;;5066563;28;20476;-41
2022/06/05 02:39:42;;;;;;;9.90;9.10;;;17.10;99.90;;;;;;5070927;28;20745;-40
2022/06/05 02:42:20;;;;;;;10.90;10.00;;;17.10;99.90;;;;;;5060362;28;20443;-42
2022/06/05 02:44:57;;;;;;;10.37;9.57;;;16.90;99.90;;;;;;5051490;28;20405;-45
2022/06/05 02:47:43;;;;;;;10.50;9.63;;;16.90;99.90;;;;;;5055931;28;20534;-43
2022/06/05 02:50:17;;;;;;;10.70;9.80;;;16.90;99.90;;;;;;5070569;28;20421;-44
2022/06/05 02:52:43;;;;;;;9.97;9.13;;;16.80;99.90;;;;;;5062032;28;20475;-40
2022/06/05 02:55:16;;;;;;;9.80;9.00;;;16.70;99.90;;;;;;5065779;28;20458;-45
2022/06/05 02:57:42;;;;;;;10.47;9.50;;;16.70;99.90;;;;;;5058170;28;20197;-41
2022/06/05 03:00:14;;;;;;;11.70;10.60;;;16.70;99.90;;;;;;5056173;28;20763;-40
2022/06/05 03:05:24;;;;;;;10.63;9.73;;;16.60;99.90;;;;;;5068379;28;20431;-43
2022/06/05 03:07:50;;;;;;;11.40;10.30;;;16.60;99.90;;;;;;5063670;28;20536;-39
2022/06/05 03:10:16;;;;;;;11.60;10.60;;;16.50;99.90;;;;;;5070498;28;20518;-43
2022/06/05 03:12:42;;;;;;;10.73;9.83;;;16.40;99.90;;;;;;5061479;28;20194;-45
2022/06/05 03:15:08;;;;;;;11.30;10.40;;;16.40;99.90;;;;;;5065694;28;20773;-40
2022/06/05 03:17:34;;;;;;;10.90;9.87;;;16.40;99.90;;;;;;5063402;28;20197;-45
2022/06/05 03:20:00;;;;;;;13.53;11.50;;;16.40;99.90;;;;;;5070524;28;20433;-41
2022/06/05 03:22:27;;;;;;;11.30;10.40;;;16.40;99.90;;;;;;5065393;28;20439;-39
2022/06/05 03:24:53;;;;;;;12.40;11.30;;;16.50;99.90;;;;;;5070384;28;20185;-43
2022/06/05 03:27:19;;;;;;;13.10;12.00;;;16.40;99.90;;;;;;5052441;28;20471;-46
2022/06/05 03:29:45;;;;;;;11.53;10.63;;;16.40;99.90;;;;;;5052754;28;20506;-40
2022/06/05 03:32:11;;;;;;;10.90;9.90;;;16.50;99.90;;;;;;5054611;28;20428;-41
2022/06/05 03:34:37;;;;;;;11.90;10.80;;;16.50;99.90;;;;;;5070337;28;20431;-43
2022/06/05 03:37:04;;;;;;;11.90;10.90;;;16.50;99.90;;;;;;5068612;28;20422;-40
2022/06/05 03:39:33;;;;;;;12.43;11.23;;;16.60;99.90;;;;;;5068921;28;20640;-43
2022/06/05 03:41:59;;;;;;;11.93;10.83;;;16.50;99.90;;;;;;5069069;28;20430;-45
2022/06/05 03:44:26;;;;;;;11.57;10.37;;;16.50;99.90;;;;;;5053734;28;20432;-46
2022/06/05 03:46:52;;;;;;;11.47;10.47;;;16.40;99.90;;;;;;5050105;28;20434;-39
2022/06/05 03:49:18;;;;;;;10.43;9.63;;;16.50;99.90;;;;;;5069981;28;20424;-45
2022/06/05 03:51:45;;;;;;;12.90;11.60;;;16.40;99.90;;;;;;5059161;28;20478;-41
2022/06/05 03:54:11;;;;;;;10.90;9.93;;;16.40;99.90;;;;;;5056666;28;20181;-42
2022/06/05 03:56:38;;;;;;;10.13;9.33;;;16.50;99.90;;;;;;5069334;28;20485;-40
2022/06/05 03:59:04;;;;;;;11.27;9.97;;;16.50;99.90;;;;;;5052261;28;20958;-42
2022/06/05 04:01:30;;;;;;;10.10;9.20;;;16.50;99.90;;;;;;5055464;28;20511;-45
2022/06/05 04:03:56;;;;;;;11.43;10.33;;;16.50;99.90;;;;;;5069472;28;20492;-40
2022/06/05 04:06:28;;;;;;;10.93;10.13;;;16.60;99.90;;;;;;5064521;28;20432;-40
2022/06/05 04:08:55;;;;;;;10.37;9.47;;;16.60;99.90;;;;;;5068652;28;20510;-40
2022/06/05 04:11:21;;;;;;;9.77;8.87;;;16.60;99.90;;;;;;5069705;28;20766;-41
2022/06/05 04:13:48;;;;;;;10.23;9.33;;;16.60;99.90;;;;;;5055050;28;20443;-41
2022/06/05 04:16:23;;;;;;;9.93;9.03;;;16.70;99.90;;;;;;5052656;28;20431;-43
2022/06/05 04:18:50;;;;;;;10.10;9.30;;;16.70;99.90;;;;;;5059845;28;20461;-43
2022/06/05 04:21:22;;;;;;;10.50;9.67;;;16.70;99.90;;;;;;5069024;28;20437;-45
2022/06/05 04:23:49;;;;;;;10.77;9.30;;;16.70;99.90;;;;;;5069323;28;20801;-41
2022/06/05 04:26:22;;;;;;;10.60;9.53;;;16.80;99.90;;;;;;5069336;28;20518;-45
2022/06/05 04:28:48;;;;;;;10.20;9.40;;;16.80;99.90;;;;;;5055513;28;20476;-41
2022/06/05 04:31:25;;;;;;;9.50;8.70;;;16.80;99.90;;;;;;5059072;28;20510;-43
2022/06/05 04:33:53;;;;;;;10.00;9.20;;;16.70;99.90;;;;;;5062424;28;20430;-46
2022/06/05 04:36:19;;;;;;;10.07;9.27;;;16.70;99.90;;;;;;5065414;28;20428;-41
2022/06/05 04:38:44;;;;;;;9.20;8.50;;;16.70;99.90;;;;;;5063703;28;20481;-42
2022/06/05 04:41:10;;;;;;;9.53;8.73;;;16.60;99.90;;;;;;5069322;28;20339;-42
2022/06/05 04:43:36;;;;;;;9.40;8.70;;;16.70;99.90;;;;;;5058345;28;20248;-39
2022/06/05 04:46:03;;;;;;;9.60;8.70;;;16.70;99.90;;;;;;5050980;28;20202;-45
2022/06/05 04:48:29;;;;;;;9.17;8.30;;;16.80;99.90;;;;;;5063446;28;20517;-40
2022/06/05 04:50:55;;;;;;;9.57;8.40;;;16.70;99.90;;;;;;5068502;28;20432;-40
2022/06/05 04:53:21;;;;;;;9.23;8.47;;;16.80;99.90;;;;;;5049988;28;20213;-40
2022/06/05 04:55:46;;;;;;;9.07;8.37;;;16.80;99.90;;;;;;5067450;28;20212;-42
2022/06/05 04:58:12;;;;;;;8.70;8.07;;;16.70;99.90;;;;;;5062299;28;20190;-40
2022/06/05 05:00:39;;;;;;;9.30;8.60;;;16.70;99.90;;;;;;5053642;28;20190;-40
2022/06/05 05:03:05;;;;;;;9.07;8.33;;;16.70;99.90;;;;;;5053384;28;20238;-42
2022/06/05 05:05:30;;;;;;;9.70;8.90;;;16.70;99.90;;;;;;5067647;28;20435;-41
2022/06/05 05:07:56;;;;;;;10.13;9.33;;;16.80;99.90;;;;;;5065285;28;20481;-42
2022/06/05 05:10:22;;;;;;;9.50;8.70;;;16.80;99.90;;;;;;5068675;28;20215;-40
2022/06/05 05:12:48;;;;;;;9.20;8.40;;;16.80;99.90;;;;;;5064779;28;20435;-41
2022/06/05 05:15:14;;;;;;;9.00;8.20;;;16.80;99.90;;;;;;5051850;28;20832;-41
2022/06/05 05:17:40;;;;;;;10.10;8.70;;;16.80;99.90;;;;;;5051673;28;20561;-39
2022/06/05 05:20:06;;;;;;;9.37;8.57;;;16.80;99.90;;;;;;5068905;28;20192;-41
2022/06/05 05:22:37;;;;;;;9.50;8.73;;;16.90;99.90;;;;;;5057575;28;20201;-40
2022/06/05 05:25:05;;;;;;;9.70;8.87;;;16.80;99.90;;;;;;5068772;28;20725;-43
2022/06/05 05:27:31;;;;;;;8.80;8.00;;;16.90;99.90;;;;;;5066734;28;20977;-41
2022/06/05 05:29:57;;;;;;;9.00;8.30;;;16.90;99.90;;;;;;5050220;28;20531;-45
2022/06/05 05:32:23;;;;;;;8.40;7.70;;;16.90;99.90;;;;;;5050386;28;20586;-42
2022/06/05 05:34:48;;;;;;;8.83;8.00;;;17.00;99.90;;;;;;5056649;28;20677;-45
2022/06/05 05:37:14;;;;;;;9.03;8.30;;;17.00;99.90;;;;;;5060410;28;20194;-40
2022/06/05 05:42:24;;;;;;;8.83;8.23;;;17.10;99.90;;;;;;5068309;28;20275;-40
2022/06/05 05:44:51;;;;;;;8.50;7.80;;;17.10;99.90;;;;;;5052238;28;20894;-40
2022/06/05 05:47:22;;;;;;;9.20;8.40;;;17.10;99.90;;;;;;5049994;28;20209;-44
2022/06/05 05:49:57;;;;;;;8.77;7.97;;;17.20;99.90;;;;;;5060948;28;20514;-44
2022/06/05 05:52:24;;;;;;;8.97;8.27;;;17.30;99.90;;;;;;5049301;28;20439;-44
2022/06/05 05:54:50;;;;;;;8.33;7.73;;;17.30;99.90;;;;;;5060803;28;20448;-41
2022/06/05 05:57:17;;;;;;;9.30;8.40;;;17.40;99.90;;;;;;5067504;28;20443;-42
2022/06/05 05:59:42;;;;;;;10.07;8.80;;;17.40;99.90;;;;;;5051723;28;20181;-42
2022/06/05 06:02:13;;;;;;;9.77;8.87;;;17.40;99.90;;;;;;5058134;28;20530;-41
2022/06/05 06:04:41;;;;;;;8.73;8.00;;;17.40;99.90;;;;;;5066134;28;20204;-41
2022/06/05 06:07:07;;;;;;;8.90;8.20;;;17.40;99.90;;;;;;5065813;28;20416;-45
2022/06/05 06:09:34;;;;;;;8.90;8.10;;;17.40;99.90;;;;;;5065988;28;20961;-42
2022/06/05 06:12:00;;;;;;;8.77;7.93;;;17.50;99.90;;;;;;5072090;28;20524;-39
2022/06/05 06:14:26;;;;;;;8.77;8.07;;;17.50;99.90;;;;;;5060091;28;20432;-45
2022/06/05 06:16:51;;;;;;;9.70;8.90;;;17.60;99.90;;;;;;5059671;28;20432;-41
2022/06/05 06:19:18;;;;;;;8.67;8.07;;;17.60;99.90;;;;;;5065936;28;20177;-40
2022/06/05 06:21:44;;;;;;;9.27;8.57;;;17.70;99.90;;;;;;5070076;28;20256;-39
2022/06/05 06:24:11;;;;;;;9.83;8.93;;;17.80;99.90;;;;;;5066026;28;20490;-46
2022/06/05 06:26:37;;;;;;;12.23;9.00;;;17.70;99.90;;;;;;5071306;28;20431;-41
2022/06/05 06:29:03;;;;;;;9.40;8.60;;;17.70;99.90;;;;;;5063748;28;20468;-45
2022/06/05 06:31:29;;;;;;;9.30;8.43;;;17.70;99.90;;;;;;5058601;28;20195;-41
2022/06/05 06:33:54;;;;;;;8.97;8.17;;;17.80;99.90;;;;;;5054146;28;20427;-43
2022/06/05 06:36:20;;;;;;;8.73;8.03;;;17.80;99.90;;;;;;5071571;28;20184;-43
2022/06/05 06:38:46;;;;;;;9.23;8.53;;;17.80;99.90;;;;;;5067582;28;20211;-42
2022/06/05 06:41:14;;;;;;;9.73;9.03;;;17.90;99.90;;;;;;5071519;28;20714;-43
2022/06/05 06:43:41;;;;;;;10.40;9.50;;;17.80;99.90;;;;;;5067842;28;20436;-42
2022/06/05 06:46:07;;;;;;;9.57;8.87;;;17.80;99.90;;;;;;5052395;28;20408;-42
2022/06/05 06:48:34;;;;;;;9.73;8.87;;;17.80;99.90;;;;;;5056850;28;20463;-43
2022/06/05 06:51:00;;;;;;;9.73;8.93;;;17.80;99.90;;;;;;5071069;28;20415;-40
2022/06/05 06:53:27;;;;;;;8.80;8.10;;;17.80;99.90;;;;;;5056713;28;20977;-40
2022/06/05 06:55:52;;;;;;;9.20;8.40;;;17.80;99.90;;;;;;5070879;28;20437;-40
2022/06/05 06:58:18;;;;;;;9.90;9.10;;;17.80;99.90;;;;;;5068350;28;20865;-41
2022/06/05 07:00:45;;;;;;;8.70;8.10;;;17.80;99.90;;;;;;5048391;28;20192;-40
2022/06/05 07:03:11;;;;;;;9.60;8.80;;;17.80;99.90;;;;;;5059307;28;20409;-41
2022/06/05 07:05:38;;;;;;;11.13;8.90;;;17.90;99.90;;;;;;5070492;28;20469;-45
2022/06/05 07:08:04;;;;;;;9.83;9.03;;;17.80;99.90;;;;;;5059382;28;20582;-42
2022/06/05 07:10:30;;;;;;;10.20;9.40;;;17.80;99.90;;;;;;5050374;28;20428;-40
2022/06/05 07:12:55;;;;;;;10.43;9.47;;;17.80;99.90;;;;;;5049928;28;20477;-43
2022/06/05 07:15:21;;;;;;;9.40;8.50;;;17.90;99.90;;;;;;5051132;28;20551;-43
2022/06/05 07:17:47;;;;;;;10.10;9.30;;;17.90;99.90;;;;;;5049602;28;20714;-44
2022/06/05 07:20:14;;;;;;;9.70;8.90;;;17.90;99.90;;;;;;5044909;28;20440;-41
2022/06/05 07:22:40;;;;;;;9.97;9.27;;;17.90;99.90;;;;;;5054800;28;20587;-45
2022/06/05 07:25:07;;;;;;;8.77;8.00;;;18.00;99.90;;;;;;5063343;28;20424;-44
2022/06/05 07:27:33;;;;;;;10.07;9.17;;;18.00;99.90;;;;;;5057905;28;20463;-42
2022/06/05 07:29:59;;;;;;;9.17;8.47;;;18.10;99.90;;;;;;5051856;28;20439;-40
2022/06/05 07:32:24;;;;;;;9.80;9.00;;;18.10;99.90;;;;;;5054767;28;20417;-41
2022/06/05 07:34:51;;;;;;;10.00;9.20;;;18.10;99.90;;;;;;5058456;28;20686;-40
2022/06/05 07:37:17;;;;;;;9.67;8.97;;;18.10;99.90;;;;;;5057971;28;20182;-45
2022/06/05 07:39:43;;;;;;;10.87;9.97;;;18.20;99.90;;;;;;5058780;28;20431;-42
2022/06/05 07:42:10;;;;;;;9.97;9.17;;;18.10;99.90;;;;;;5056294;28;20852;-44
2022/06/05 07:44:39;;;;;;;10.60;9.70;;;18.10;99.90;;;;;;5061275;28;20436;-42
2022/06/05 07:47:09;;;;;;;10.13;9.23;;;18.10;99.90;;;;;;5049137;28;20519;-44
2022/06/05 07:49:39;;;;;;;10.10;9.30;;;18.20;99.90;;;;;;5051936;28;20447;-43
2022/06/05 07:54:50;;;;;;;9.63;8.83;;;18.30;99.90;;;;;;5029522;28;20821;-41
2022/06/05 07:57:20;;;;;;;9.30;8.50;;;18.40;99.90;;;;;;5063771;28;20455;-43
2022/06/05 07:59:48;;;;;;;9.93;8.93;;;18.50;99.90;;;;;;5054621;28;20189;-44
2022/06/05 08:02:20;;;;;;;9.77;8.97;;;18.60;99.90;;;;;;5049294;28;20455;-41
2022/06/05 08:04:46;;;;;;;10.87;10.00;;;18.70;99.90;;;;;;5050226;28;20827;-44
2022/06/05 08:07:15;;;;;;;10.57;9.67;;;18.70;99.90;;;;;;5057826;28;20430;-42
2022/06/05 08:09:42;;;;;;;10.80;9.80;;;18.80;99.90;;;;;;5053902;28;20740;-40
2022/06/05 08:12:10;;;;;;;10.50;9.67;;;18.90;99.90;;;;;;5046165;28;20436;-43
2022/06/05 08:14:37;;;;;;;10.53;9.47;;;19.00;99.90;;;;;;5049886;28;21012;-41
2022/06/05 08:17:09;;;;;;;10.50;9.70;;;19.10;99.90;;;;;;5048913;28;20432;-40
2022/06/05 08:19:36;;;;;;;10.67;9.70;;;19.20;99.90;;;;;;5049154;28;20428;-42
2022/06/05 08:22:02;;;;;;;10.60;9.80;;;19.30;99.90;;;;;;5050233;28;20422;-41
2022/06/05 08:24:28;;;;;;;10.13;9.33;;;19.40;99.90;;;;;;5050144;28;20784;-40
2022/06/05 08:26:54;;;;;;;10.30;9.40;;;19.50;99.90;;;;;;5049018;28;20428;-41
2022/06/05 08:29:20;;;;;;;10.70;9.70;;;19.70;99.90;;;;;;5049556;28;20309;-40
2022/06/05 08:31:46;;;;;;;10.30;9.50;;;19.80;99.90;;;;;;5065691;28;20184;-40
2022/06/05 08:34:12;;;;;;;10.33;9.43;;;19.90;99.90;;;;;;5054007;28;20997;-40
2022/06/05 08:36:38;;;;;;;9.63;8.83;;;20.10;99.90;;;;;;5068594;28;20446;-42
2022/06/05 08:42:03;;;;;;;10.87;9.93;;;20.50;99.90;;;;;;5046473;28;20206;-42
2022/06/05 08:44:45;;;;;;;10.27;9.37;;;20.60;99.90;;;;;;5051565;28;20436;-41
2022/06/05 08:47:26;;;;;;;9.97;8.97;;;20.80;99.90;;;;;;5051748;28;20427;-41
2022/06/05 08:50:04;;;;;;;8.73;8.03;;;21.00;99.90;;;;;;5043607;28;20475;-42
2022/06/05 08:52:39;;;;;;;9.60;8.80;;;21.00;99.90;;;;;;5047317;28;20416;-41
2022/06/05 08:55:44;;;;;;;10.57;9.77;;;21.10;99.90;;;;;;5061696;28;20426;-48
2022/06/05 08:58:20;;;;;;;10.50;9.70;;;21.10;99.90;;;;;;5046309;28;20432;-41
2022/06/05 09:00:57;;;;;;;9.50;8.70;;;21.10;99.90;;;;;;5045165;28;20992;-43
2022/06/05 09:03:36;;;;;;;10.00;9.20;;;21.10;99.90;;;;;;5050817;28;20445;-45
2022/06/05 09:06:06;;;;;;;10.90;9.80;;;21.20;99.90;;;;;;5060688;28;20441;-44
2022/06/05 09:08:36;;;;;;;10.40;9.40;;;21.30;99.90;;;;;;5066399;28;20467;-41
2022/06/05 09:11:06;;;;;;;11.37;10.47;;;21.30;99.90;;;;;;5068581;28;20434;-40
2022/06/05 09:13:45;;;;;;;9.67;8.97;;;21.30;99.90;;;;;;5068991;28;20419;-43
2022/06/05 09:16:15;;;;;;;9.40;8.70;;;21.30;99.90;;;;;;5053198;28;20505;-46
2022/06/05 09:18:46;;;;;;;10.20;9.30;;;21.30;99.90;;;;;;5053144;28;20477;-41
2022/06/05 09:21:37;;;;;;;10.00;9.20;;;21.30;99.90;;;;;;5048668;28;20516;-41
2022/06/05 09:24:30;;;;;;;9.97;9.13;;;21.30;99.90;;;;;;5048247;28;20466;-44
2022/06/05 09:27:31;;;;;;;10.50;9.47;;;21.30;99.90;;;;;;5065104;28;20594;-43
2022/06/05 09:30:11;;;;;;;10.00;9.30;;;21.30;99.90;;;;;;5038678;28;20483;-40
2022/06/05 09:33:08;;;;;;;10.60;9.80;;;21.30;99.90;;;;;;5055766;28;20428;-40
2022/06/05 09:35:48;;;;;;;10.23;9.53;;;21.20;99.90;;;;;;5050168;28;20447;-41
2022/06/05 09:38:24;;;;;;;9.97;9.27;;;21.20;99.90;;;;;;5049824;28;20459;-42
2022/06/05 09:40:58;;;;;;;10.30;9.40;;;21.20;99.90;;;;;;5070902;28;20458;-43
2022/06/05 09:43:47;;;;;;;9.93;9.23;;;21.10;99.90;;;;;;5060930;28;20419;-45
2022/06/05 09:46:35;;;;;;;9.40;8.70;;;21.20;99.90;;;;;;5052848;28;20559;-45
2022/06/05 09:49:26;;;;;;;9.77;8.77;;;21.10;99.90;;;;;;5049302;28;20488;-42
2022/06/05 09:51:53;;;;;;;10.27;9.57;;;21.10;99.90;;;;;;5065658;28;20427;-44
2022/06/05 09:54:22;;;;;;;10.80;10.00;;;21.10;99.90;;;;;;5059644;28;20420;-42
2022/06/05 10:00:01;;;;;;;9.73;9.03;;;21.10;99.90;;;;;;5066085;28;20939;-43
2022/06/05 10:02:28;;;;;;;10.77;10.07;;;21.10;99.90;;;;;;5052987;28;20540;-43
2022/06/05 10:04:54;;;;;;;10.00;9.30;;;21.10;99.90;;;;;;5056835;28;20485;-45
2022/06/05 10:07:34;;;;;;;10.83;9.90;;;21.00;99.90;;;;;;5070124;28;20419;-41
2022/06/05 10:10:15;;;;;;;9.70;9.00;;;20.90;99.90;;;;;;5055671;28;20424;-42
2022/06/05 10:12:50;;;;;;;10.27;9.47;;;20.90;99.90;;;;;;5065607;28;20949;-42
2022/06/05 10:15:52;;;;;;;10.20;8.70;;;20.70;99.90;;;;;;5065540;28;20428;-42
2022/06/05 10:18:31;;;;;;;11.27;9.57;;;20.70;99.90;;;;;;5060643;28;20508;-43
2022/06/05 10:21:09;;;;;;;10.13;9.40;;;20.60;99.90;;;;;;5066733;28;20419;-40
2022/06/05 10:23:58;;;;;;;10.27;9.40;;;20.50;99.90;;;;;;5066691;28;20435;-43
2022/06/05 10:26:37;;;;;;;10.40;9.50;;;20.40;99.90;;;;;;5071133;28;20506;-41
2022/06/05 10:29:23;;;;;;;11.77;10.87;;;20.30;99.90;;;;;;5071373;28;20569;-43
2022/06/05 10:31:57;;;;;;;12.00;11.00;;;20.30;99.90;;;;;;5054958;28;20490;-44
2022/06/05 10:34:41;;;;;;;10.80;10.10;;;20.30;99.90;;;;;;5052479;28;20431;-40
2022/06/05 10:37:22;;;;;;;10.70;9.90;;;20.30;99.90;;;;;;5065393;28;20417;-43
2022/06/05 10:40:22;;;;;;;11.23;10.33;;;20.20;99.90;;;;;;5067705;28;20968;-41
2022/06/05 10:42:58;;;;;;;11.10;10.30;;;20.20;99.90;;;;;;5071373;28;21005;-45
2022/06/05 10:45:42;;;;;;;11.53;10.67;;;20.20;99.90;;;;;;5067191;28;20447;-43
2022/06/05 10:48:22;;;;;;;12.00;11.00;;;20.30;99.90;;;;;;5051904;28;20804;-43
2022/06/05 10:50:52;;;;;;;11.83;11.00;;;20.20;99.90;;;;;;5051712;28;20418;-41
2022/06/05 10:53:41;;;;;;;11.57;10.67;;;20.20;99.90;;;;;;5056476;28;20417;-42
2022/06/05 10:56:28;;;;;;;11.97;11.07;;;20.20;99.90;;;;;;5061535;28;20436;-44
2022/06/05 10:59:07;;;;;;;11.70;10.80;;;20.20;99.90;;;;;;5068380;28;21116;-45
2022/06/05 11:02:01;;;;;;;12.03;11.10;;;20.10;99.90;;;;;;5058317;28;20969;-42
2022/06/05 11:05:01;;;;;;;12.70;11.80;;;20.00;99.90;;;;;;5053914;28;20470;-44
2022/06/05 11:07:36;;;;;;;12.07;11.17;;;20.00;99.90;;;;;;5051520;28;20482;-43
2022/06/05 11:13:43;;;;;;;11.43;10.33;;;19.90;99.90;;;;;;5042348;28;20450;-40
2022/06/05 11:16:33;;;;;;;11.20;10.40;;;19.90;99.90;;;;;;5062758;28;20432;-45
2022/06/05 11:19:10;;;;;;;12.00;11.00;;;19.70;99.90;;;;;;5056623;28;20428;-45
2022/06/05 11:21:39;;;;;;;11.70;10.80;;;19.70;99.90;;;;;;5056018;28;20446;-42
2022/06/05 11:24:10;;;;;;;11.63;10.53;;;19.70;99.90;;;;;;5066877;28;20511;-41
2022/06/05 11:26:44;;;;;;;11.70;10.80;;;19.60;99.90;;;;;;5070075;28;20435;-40
2022/06/05 11:29:30;;;;;;;11.97;11.07;;;19.60;99.90;;;;;;5070302;28;20463;-42
2022/06/05 11:31:59;;;;;;;11.67;10.50;;;19.70;99.90;;;;;;5056196;28;20434;-44
2022/06/05 11:34:25;;;;;;;11.60;10.73;;;19.70;99.90;;;;;;5051141;28;20420;-44
2022/06/05 11:36:58;;;;;;;11.43;10.63;;;19.60;99.90;;;;;;5062320;28;20756;-41
2022/06/05 11:39:34;;;;;;;11.67;10.77;;;19.70;99.90;;;;;;5064256;28;20186;-43
2022/06/05 11:42:11;;;;;;;12.77;11.80;;;19.70;99.90;;;;;;5065274;28;20429;-46
2022/06/05 11:44:45;;;;;;;13.57;12.27;;;19.70;99.90;;;;;;5065066;28;20522;-44
2022/06/05 11:47:40;;;;;;;12.87;11.90;;;19.80;99.90;;;;;;5029385;28;20427;-42
2022/06/05 11:50:20;;;;;;;13.10;12.10;;;19.80;99.90;;;;;;5056812;28;20435;-44
2022/06/05 11:52:56;;;;;;;13.17;12.17;;;19.80;99.90;;;;;;5060197;28;20475;-42
2022/06/05 11:55:32;;;;;;;13.13;12.23;;;19.80;99.90;;;;;;5051357;28;20438;-42
2022/06/05 11:58:10;;;;;;;13.80;12.70;;;19.90;99.90;;;;;;5054404;28;20424;-42
2022/06/05 12:00:50;;;;;;;13.20;12.20;;;19.90;99.90;;;;;;5051754;28;20431;-46
2022/06/05 12:03:50;;;;;;;14.00;12.80;;;19.90;99.90;;;;;;5049941;28;20437;-41
2022/06/05 12:06:27;;;;;;;13.90;12.80;;;19.90;99.90;;;;;;5047068;28;20420;-43
2022/06/05 12:09:01;;;;;;;13.03;12.03;;;19.90;99.90;;;;;;5068784;28;20470;-43
2022/06/05 12:11:45;;;;;;;13.50;12.50;;;20.00;99.90;;;;;;5066113;28;20446;-43
2022/06/05 12:14:51;;;;;;;13.40;12.37;;;20.10;99.90;;;;;;5062176;28;20451;-40
2022/06/05 12:17:28;;;;;;;12.90;11.90;;;20.20;99.90;;;;;;5039235;28;20447;-45
2022/06/05 12:20:12;;;;;;;13.43;12.30;;;20.30;99.90;;;;;;5048418;28;20427;-43
2022/06/05 12:23:01;;;;;;;13.30;12.20;;;20.40;99.90;;;;;;5047378;28;20420;-46
2022/06/05 12:25:35;;;;;;;13.07;12.07;;;20.50;99.90;;;;;;5048253;28;20420;-42
2022/06/05 12:28:05;;;;;;;13.23;12.13;;;20.70;99.90;;;;;;5059550;28;21058;-46
2022/06/05 12:30:40;;;;;;;13.10;12.10;;;20.70;99.90;;;;;;5067861;28;20403;-42
2022/06/05 12:33:17;;;;;;;13.90;12.90;;;20.70;99.90;;;;;;5045399;28;20528;-43
2022/06/05 12:35:49;;;;;;;13.63;12.63;;;20.80;99.90;;;;;;5050849;28;20549;-41
2022/06/05 12:38:23;;;;;;;12.80;11.90;;;20.80;99.90;;;;;;5068360;28;20457;-45
2022/06/05 12:41:02;;;;;;;13.63;12.53;;;20.90;99.90;;;;;;5055408;28;20773;-43
2022/06/05 12:43:40;;;;;;;13.10;11.93;;;20.90;99.90;;;;;;5069148;28;20419;-43
2022/06/05 12:46:16;;;;;;;13.50;12.20;;;20.90;99.90;;;;;;5065142;28;20439;-43
2022/06/05 12:48:44;;;;;;;12.53;11.43;;;20.90;99.90;;;;;;5054330;28;20497;-44
2022/06/05 12:51:22;;;;;;;12.23;11.27;;;21.10;99.90;;;;;;5062156;28;20450;-43
2022/06/05 12:54:22;;;;;;;12.20;11.30;;;21.20;99.90;;;;;;5054090;28;20419;-45
2022/06/05 12:56:53;;;;;;;12.10;11.20;;;21.20;99.90;;;;;;5064464;28;20435;-44
2022/06/05 12:59:40;;;;;;;12.20;11.30;;;21.10;99.90;;;;;;5067481;28;20419;-42
2022/06/05 13:02:11;;;;;;;11.73;10.83;;;21.10;99.90;;;;;;5057254;28;20979;-41
2022/06/05 13:04:52;;;;;;;11.73;10.83;;;21.10;99.90;;;;;;5052663;28;20417;-42
2022/06/05 13:07:20;;;;;;;12.00;11.20;;;21.10;99.90;;;;;;5058896;28;20419;-45
2022/06/05 13:10:00;;;;;;;11.90;11.00;;;21.10;99.90;;;;;;5068045;28;21088;-41
2022/06/05 13:12:47;;;;;;;11.87;10.97;;;21.10;99.90;;;;;;5073365;28;20511;-43
2022/06/05 13:15:31;;;;;;;11.33;10.43;;;21.10;99.90;;;;;;5075695;28;20991;-41
2022/06/05 13:18:15;;;;;;;11.97;11.07;;;21.00;99.90;;;;;;5060371;28;20431;-41
2022/06/05 13:20:46;;;;;;;11.87;10.97;;;21.00;99.90;;;;;;5055025;28;20888;-44
2022/06/05 13:23:24;;;;;;;11.30;10.40;;;21.00;99.90;;;;;;5049632;28;20491;-47
2022/06/05 13:26:22;;;;;;;12.00;11.10;;;21.00;99.90;;;;;;5065189;28;20415;-43